Time;durP1;ratioP1;P1;durP2;ratioP2;P2;SDS_P1;SDS_P2;PMS_P1;PMS_P2;Temp;Humidity;BMP_temperature;BMP_pressure;BME280_temperature;BME280_humidity;BME280_pressure;Samples;Min_cycle;Max_cycle;Signal;HPM_P1;HPM_P2
2022/05/19 00:02:44;;;;;;;29.92;17.65;;;;;;;18.66;71.89;101646.31;5019228;28;20062;-68
2022/05/19 00:05:12;;;;;;;21.95;16.95;;;;;;;18.65;72.11;101641.06;5015879;28;20031;-68
2022/05/19 00:07:39;;;;;;;23.23;18.02;;;;;;;18.64;72.16;101637.53;5011252;28;20129;-68
2022/05/19 00:10:08;;;;;;;24.90;17.10;;;;;;;18.64;72.59;101629.50;5014293;28;20564;-67
2022/05/19 00:12:35;;;;;;;31.02;17.80;;;;;;;18.62;72.30;101632.28;5017059;28;20532;-67
2022/05/19 00:15:04;;;;;;;23.05;17.55;;;;;;;18.61;72.25;101627.03;5019536;28;20114;-67
2022/05/19 00:17:31;;;;;;;25.02;17.50;;;;;;;18.61;72.41;101625.19;5016908;28;20044;-67
2022/05/19 00:19:58;;;;;;;24.05;17.80;;;;;;;18.59;72.46;101627.09;5013239;28;20047;-68
2022/05/19 00:22:26;;;;;;;23.20;17.60;;;;;;;18.58;72.51;101627.19;5018220;28;20077;-67
2022/05/19 00:24:54;;;;;;;25.92;18.50;;;;;;;18.58;72.64;101628.03;5016740;28;20064;-67
2022/05/19 00:27:21;;;;;;;28.58;18.35;;;;;;;18.57;72.49;101626.28;5010834;28;20453;-66
2022/05/19 00:30:45;;;;;;;25.05;18.55;;;;;;;18.56;72.44;101621.03;5017706;28;20547;-66
2022/05/19 00:48:52;;;;;;;27.13;20.05;;;;;;;18.39;72.76;101608.56;4954804;28;20047;-69
2022/05/19 00:51:37;;;;;;;28.77;19.55;;;;;;;18.37;73.31;101605.09;4961854;28;20127;-68
2022/05/19 00:54:09;;;;;;;26.05;19.33;;;;;;;18.35;73.25;101604.34;4971892;28;20160;-68
2022/05/19 00:56:48;;;;;;;29.33;20.52;;;;;;;18.36;73.36;101611.41;5016723;28;20508;-68
2022/05/19 00:59:29;;;;;;;28.70;20.30;;;;;;;18.33;73.50;101600.88;5015226;28;20046;-68
2022/05/19 01:01:57;;;;;;;29.48;20.83;;;;;;;18.30;73.80;101593.91;5022072;28;20045;-68
2022/05/19 01:04:43;;;;;;;29.08;21.23;;;;;;;18.28;73.48;101591.28;5025885;28;20050;-68
2022/05/19 01:07:31;;;;;;;;;;;;;;;18.24;73.87;101591.53;5023118;28;20050;-68
2022/05/19 01:09:59;;;;;;;29.58;20.58;;;;;;;18.23;73.96;101598.69;5023267;28;19933;-68
2022/05/19 01:12:29;;;;;;;31.52;21.27;;;;;;;18.21;73.67;101592.56;5022268;28;20037;-67
2022/05/19 01:14:59;;;;;;;31.30;21.60;;;;;;;18.20;73.97;101596.16;5025229;28;20050;-68
2022/05/19 01:17:29;;;;;;;30.08;22.20;;;;;;;18.20;73.95;101589.97;5025976;28;20046;-66
2022/05/19 01:20:01;;;;;;;30.40;22.90;;;;;;;18.19;74.08;101597.09;5027502;28;20042;-65
2022/05/19 01:31:54;;;;;;;32.30;22.90;;;;;;;18.06;74.89;101591.53;3371561;28;22106;-69
2022/05/19 01:34:30;;;;;;;32.05;23.30;;;;;;;18.04;74.79;101581.88;5015771;28;20058;-68
2022/05/19 01:36:58;;;;;;;33.05;23.27;;;;;;;17.99;74.88;101577.63;5015411;28;20081;-67
2022/05/19 01:39:33;;;;;;;33.67;23.42;;;;;;;17.99;75.20;101576.78;5025110;28;20052;-68
2022/05/19 01:42:19;;;;;;;29.45;22.30;;;;;;;17.98;75.40;101572.38;5017074;28;20042;-69
2022/05/19 01:45:29;;;;;;;32.10;21.48;;;;;;;18.03;75.82;101564.13;5015058;28;20061;-69
2022/05/19 01:48:36;;;;;;;28.58;21.30;;;;;;;18.04;75.28;101565.88;5022556;28;20039;-69
2022/05/19 01:51:16;;;;;;;30.13;21.52;;;;;;;18.05;75.34;101563.09;5026045;28;20068;-68
2022/05/19 01:54:22;;;;;;;28.17;21.10;;;;;;;18.05;75.28;101562.25;5018621;28;20041;-69
2022/05/19 01:56:52;;;;;;;28.50;21.00;;;;;;;18.01;74.94;101561.53;5015344;28;20079;-69
2022/05/19 01:59:27;;;;;;;29.05;21.60;;;;;;;18.01;75.14;101553.53;5028759;28;20092;-68
2022/05/19 02:02:25;;;;;;;29.40;20.70;;;;;;;17.99;75.10;101564.28;5021129;28;20058;-68
2022/05/19 02:05:22;;;;;;;28.05;20.70;;;;;;;17.97;75.48;101554.63;5021768;28;20043;-68
2022/05/19 02:07:55;;;;;;;26.85;20.73;;;;;;;17.96;75.54;101548.41;5022029;28;20051;-69
2022/05/19 02:10:29;;;;;;;29.85;21.13;;;;;;;17.94;75.19;101549.41;5011687;28;20053;-69
2022/05/19 02:13:01;;;;;;;27.95;19.33;;;;;;;17.91;75.19;101545.09;5017633;28;20539;-68
2022/05/19 02:15:34;;;;;;;29.50;19.42;;;;;;;17.88;75.14;101539.91;5023534;28;20068;-67
2022/05/19 02:18:02;;;;;;;22.25;19.15;;;;;;;17.88;74.92;101547.06;5016965;28;20153;-69
2022/05/19 02:20:31;;;;;;;24.77;18.60;;;;;;;17.87;74.98;101546.19;5025162;28;20100;-68
2022/05/19 02:23:00;;;;;;;24.50;18.02;;;;;;;17.86;74.75;101544.44;5021588;28;20124;-68
2022/05/19 02:25:31;;;;;;;22.27;16.88;;;;;;;17.86;74.56;101549.78;5018250;28;20120;-70
2022/05/19 02:28:18;;;;;;;22.00;16.35;;;;;;;17.87;74.51;101548.84;5027448;28;20065;-67
2022/05/19 02:30:45;;;;;;;20.27;15.40;;;;;;;17.85;74.24;101551.59;5015742;28;20511;-68
2022/05/19 02:33:14;;;;;;;20.75;15.10;;;;;;;17.87;74.12;101556.00;5018009;28;20061;-68
2022/05/19 02:35:43;;;;;;;20.05;15.20;;;;;;;17.88;74.16;101552.41;5019753;28;20050;-66
2022/05/19 02:38:12;;;;;;;21.30;14.63;;;;;;;17.88;73.93;101545.25;5023765;28;20527;-67
2022/05/19 02:40:41;;;;;;;18.45;14.13;;;;;;;17.90;73.73;101545.19;5022680;28;20563;-68
2022/05/19 02:43:11;;;;;;;19.33;13.10;;;;;;;17.90;73.55;101543.38;5025220;28;20034;-68
2022/05/19 02:45:40;;;;;;;15.95;11.40;;;;;;;17.94;73.36;101547.63;5011336;28;20057;-68
2022/05/19 02:48:11;;;;;;;15.07;11.50;;;;;;;17.96;73.09;101545.75;5020916;28;20069;-69
2022/05/19 02:50:40;;;;;;;13.48;10.10;;;;;;;17.99;72.73;101542.09;5012677;28;20038;-69
2022/05/19 02:53:11;;;;;;;12.57;9.25;;;;;;;18.03;72.60;101543.66;5024062;28;20049;-67
2022/05/19 02:55:40;;;;;;;14.82;9.40;;;;;;;18.03;72.29;101535.63;5033117;28;20089;-67
2022/05/19 02:58:11;;;;;;;13.20;8.40;;;;;;;18.06;72.11;101542.66;5031758;28;20058;-66
2022/05/19 03:00:46;;;;;;;13.63;7.90;;;;;;;18.05;71.87;101539.09;5023742;28;20042;-67
2022/05/19 03:03:14;;;;;;;9.20;7.95;;;;;;;18.07;71.60;101542.56;5016680;28;20034;-67
2022/05/19 03:05:41;;;;;;;9.52;6.95;;;;;;;18.10;71.27;101552.19;5021443;28;20049;-68
2022/05/19 03:08:10;;;;;;;9.02;6.93;;;;;;;18.12;71.14;101556.50;5022386;28;20051;-67
2022/05/19 03:10:40;;;;;;;8.98;6.43;;;;;;;18.17;70.77;101556.28;5015757;28;20117;-67
2022/05/19 03:13:21;;;;;;;9.07;5.82;;;;;;;18.20;70.85;101558.78;5013279;28;20045;-68
2022/05/19 03:15:48;;;;;;;6.95;6.10;;;;;;;18.22;70.64;101567.59;5021070;28;20037;-68
2022/05/19 03:18:16;;;;;;;8.38;6.05;;;;;;;18.23;70.34;101564.00;5019512;28;20049;-68
2022/05/19 03:20:47;;;;;;;7.85;6.18;;;;;;;18.25;70.34;101569.22;5027756;28;20129;-68
2022/05/19 03:23:20;;;;;;;7.60;5.75;;;;;;;18.28;70.19;101564.59;5011623;28;20034;-68
2022/05/19 03:25:47;;;;;;;7.45;5.50;;;;;;;18.28;69.97;101561.94;5012129;28;20121;-68
2022/05/19 03:28:15;;;;;;;9.70;6.57;;;;;;;18.29;70.01;101561.00;5014377;28;20504;-68
2022/05/19 03:30:43;;;;;;;7.15;5.30;;;;;;;18.31;69.91;101577.78;5013261;28;20523;-67
2022/05/19 03:33:12;;;;;;;5.72;5.05;;;;;;;18.35;69.73;101574.97;5027606;28;20128;-67
2022/05/19 03:35:40;;;;;;;8.60;5.47;;;;;;;18.37;69.65;101576.63;5018367;28;20046;-66
2022/05/19 03:38:08;;;;;;;7.93;5.38;;;;;;;18.41;69.59;101574.66;5013918;28;20046;-67
2022/05/19 03:40:35;;;;;;;7.20;5.13;;;;;;;18.46;69.44;101580.63;5019704;28;20512;-67
2022/05/19 03:43:02;;;;;;;6.22;4.93;;;;;;;18.54;69.44;101596.22;5019932;28;20129;-67
2022/05/19 03:45:37;;;;;;;9.55;5.40;;;;;;;18.56;68.27;101621.94;5018460;28;20046;-67
2022/05/19 03:48:04;;;;;;;17.80;6.80;;;;;;;18.50;69.67;101696.97;5015840;28;20050;-66
2022/05/19 03:50:32;;;;;;;21.58;12.77;;;;;;;18.42;71.25;101700.00;5020683;28;20050;-68
2022/05/19 03:52:59;;;;;;;22.20;8.50;;;;;;;18.37;67.63;101680.72;5020660;28;20049;-68
2022/05/19 03:55:29;;;;;;;16.63;8.88;;;;;;;18.55;68.47;101656.69;5026696;28;20081;-68
2022/05/19 03:57:56;;;;;;;13.73;6.75;;;;;;;18.74;66.04;101732.25;5029703;28;20042;-69
2022/05/19 04:00:23;;;;;;;15.70;7.88;;;;;;;18.97;66.47;101735.59;5027458;28;20163;-68
2022/05/19 04:02:50;;;;;;;14.40;9.20;;;;;;;19.14;66.27;101702.66;5016808;28;20065;-69
2022/05/19 04:05:25;;;;;;;17.37;8.87;;;;;;;19.26;66.29;101705.63;5019397;28;20042;-68
2022/05/19 04:07:53;;;;;;;13.88;9.75;;;;;;;19.33;65.10;101715.88;5021450;28;20121;-68
2022/05/19 04:10:20;;;;;;;16.50;8.82;;;;;;;19.42;64.87;101719.03;5019941;28;20046;-69
2022/05/19 04:13:07;;;;;;;14.98;9.32;;;;;;;19.52;65.31;101701.53;5021999;28;20048;-68
2022/05/19 04:15:54;;;;;;;14.52;9.02;;;;;;;19.59;65.18;101702.03;5019104;28;20061;-68
2022/05/19 04:18:40;;;;;;;11.15;8.57;;;;;;;19.64;65.01;101714.22;5015017;28;20042;-68
2022/05/19 04:21:13;;;;;;;14.02;8.73;;;;;;;19.67;65.26;101714.06;5022271;28;20038;-69
2022/05/19 04:23:41;;;;;;;11.13;8.82;;;;;;;19.70;65.01;101713.00;5026247;28;20097;-69
2022/05/19 04:26:08;;;;;;;15.10;9.27;;;;;;;19.71;64.97;101722.78;5020275;28;20090;-69
2022/05/19 04:28:36;;;;;;;14.90;9.82;;;;;;;19.73;64.96;101718.22;5020900;28;20105;-68
2022/05/19 04:31:03;;;;;;;11.35;9.10;;;;;;;19.76;64.89;101714.50;5022293;28;20052;-67
2022/05/19 04:33:32;;;;;;;15.43;9.50;;;;;;;19.77;64.85;101719.78;5021449;28;20834;-67
2022/05/19 04:36:03;;;;;;;17.85;9.82;;;;;;;19.77;64.95;101719.78;5025556;28;20129;-66
2022/05/19 04:38:31;;;;;;;14.80;9.27;;;;;;;19.83;65.48;101710.53;5016674;28;20050;-66
2022/05/19 04:41:04;;;;;;;12.30;9.25;;;;;;;19.86;65.02;101695.22;5013551;28;20038;-66
2022/05/19 04:43:32;;;;;;;12.93;9.10;;;;;;;19.92;65.10;101695.81;5018915;28;20042;-67
2022/05/19 04:45:59;;;;;;;11.40;8.00;;;;;;;19.96;65.00;101692.03;5017920;28;20052;-68
2022/05/19 04:48:27;;;;;;;11.32;7.72;;;;;;;19.97;65.11;101702.63;5016009;28;20073;-66
2022/05/19 04:50:58;;;;;;;11.90;7.25;;;;;;;19.97;65.10;101699.94;5022414;28;20054;-66
2022/05/19 04:53:26;;;;;;;31.20;9.35;;;;;;;20.01;65.34;101708.66;5016089;28;20045;-67
2022/05/19 04:55:54;;;;;;;13.27;8.25;;;;;;;20.01;65.43;101693.47;5013430;28;20522;-67
2022/05/19 04:58:23;;;;;;;13.85;7.45;;;;;;;20.04;65.17;101696.94;5018749;28;20085;-68
2022/05/19 05:00:52;;;;;;;33.10;9.18;;;;;;;20.05;65.24;101694.16;5023739;28;20060;-68
2022/05/19 05:03:20;;;;;;;19.17;8.13;;;;;;;20.09;65.30;101698.41;5033492;28;20519;-67
2022/05/19 05:05:48;;;;;;;21.40;8.20;;;;;;;20.16;65.46;101691.75;5015353;28;20042;-67
2022/05/19 05:08:16;;;;;;;19.00;8.38;;;;;;;20.24;65.44;101685.06;5019801;28;20493;-68
2022/05/19 05:10:43;;;;;;;19.48;7.70;;;;;;;20.30;65.46;101693.63;5013934;28;20038;-68
2022/05/19 05:13:14;;;;;;;15.57;8.25;;;;;;;20.39;65.47;101700.25;5019419;28;20110;-68
2022/05/19 05:15:43;;;;;;;17.67;8.35;;;;;;;20.51;65.24;101708.50;5016791;28;20132;-69
2022/05/19 05:18:11;;;;;;;18.45;7.97;;;;;;;20.60;65.23;101706.16;5029372;28;20034;-68
2022/05/19 05:20:42;;;;;;;16.83;8.13;;;;;;;20.71;65.22;101701.97;5020052;28;20042;-69
2022/05/19 05:23:10;;;;;;;11.57;7.47;;;;;;;20.81;65.07;101705.88;5021357;28;20070;-68
2022/05/19 05:25:38;;;;;;;10.63;7.88;;;;;;;20.94;65.13;101697.94;5029947;28;20045;-68
2022/05/19 05:28:05;;;;;;;9.40;8.30;;;;;;;21.16;64.63;101692.16;5018438;28;20141;-69
2022/05/19 05:30:33;;;;;;;11.30;8.23;;;;;;;21.40;64.22;101692.44;5014412;28;20268;-68
2022/05/19 05:33:05;;;;;;;11.93;7.82;;;;;;;21.86;63.58;101694.03;5018597;28;20062;-69
2022/05/19 05:35:36;;;;;;;11.00;7.85;;;;;;;22.15;62.79;101695.75;5019876;28;20034;-69
2022/05/19 05:38:03;;;;;;;8.90;7.20;;;;;;;22.23;62.21;101697.94;5020929;28;20050;-68
2022/05/19 05:40:35;;;;;;;9.75;6.35;;;;;;;22.33;61.87;101699.03;5025256;28;20072;-67
2022/05/19 05:43:09;;;;;;;9.02;6.68;;;;;;;22.51;61.37;101698.81;5016216;28;20527;-69
2022/05/19 05:45:38;;;;;;;9.77;6.28;;;;;;;22.63;60.69;101696.16;5023986;28;20102;-69
2022/05/19 05:48:05;;;;;;;9.15;5.20;;;;;;;22.91;59.43;101694.25;5019502;28;20038;-68
2022/05/19 05:50:33;;;;;;;9.57;5.15;;;;;;;23.16;58.10;101689.84;5026682;28;20105;-68
2022/05/19 05:53:00;;;;;;;9.25;4.40;;;;;;;23.32;56.89;101684.25;5019075;28;20042;-69
2022/05/19 05:55:28;;;;;;;7.10;4.35;;;;;;;23.56;55.86;101681.63;5019234;28;20567;-69
2022/05/19 05:57:56;;;;;;;5.78;3.78;;;;;;;23.92;54.03;101676.34;5013603;28;20042;-68
2022/05/19 06:00:23;;;;;;;8.70;3.97;;;;;;;24.02;54.35;101676.59;5018907;28;20057;-68
2022/05/19 06:02:50;;;;;;;8.05;3.60;;;;;;;23.95;54.34;101669.94;5029967;28;20523;-69
2022/05/19 06:05:19;;;;;;;4.57;3.00;;;;;;;23.71;54.30;101666.19;5018870;28;20050;-68
2022/05/19 06:07:47;;;;;;;3.90;2.90;;;;;;;23.49;54.32;101668.75;5035342;28;20116;-69
2022/05/19 06:10:14;;;;;;;6.18;3.15;;;;;;;23.23;54.52;101666.09;5019295;28;20117;-70
2022/05/19 06:12:42;;;;;;;6.32;3.50;;;;;;;23.04;55.25;101662.00;5019910;28;20038;-68
2022/05/19 06:15:13;;;;;;;8.55;3.38;;;;;;;22.91;55.19;101664.69;5013094;28;20445;-68
2022/05/19 06:17:41;;;;;;;6.22;4.07;;;;;;;22.80;55.49;101678.84;5013938;28;20042;-69
2022/05/19 06:20:13;;;;;;;10.10;4.50;;;;;;;22.70;55.81;101669.72;5028921;28;20041;-69
2022/05/19 06:22:42;;;;;;;7.90;4.90;;;;;;;22.63;56.03;101674.66;5013324;28;20062;-69
2022/05/19 06:25:15;;;;;;;7.05;5.03;;;;;;;22.59;57.01;101659.72;5016538;28;20042;-67
2022/05/19 06:27:44;;;;;;;9.05;5.00;;;;;;;22.56;56.71;101653.69;5019674;28;20125;-68
2022/05/19 06:30:12;;;;;;;7.15;5.10;;;;;;;22.60;57.22;101622.94;5013937;28;20507;-68
2022/05/19 06:32:42;;;;;;;5.25;4.00;;;;;;;22.70;56.32;101585.56;5012247;28;20141;-69
2022/05/19 06:35:14;;;;;;;6.55;4.13;;;;;;;22.73;56.59;101578.13;5021376;28;20046;-68
2022/05/19 06:37:43;;;;;;;5.40;3.60;;;;;;;22.67;56.73;101558.88;5016818;28;20046;-69
2022/05/19 06:40:13;;;;;;;4.72;3.33;;;;;;;22.55;56.91;101561.47;5012346;28;20133;-69
2022/05/19 06:42:42;;;;;;;4.85;3.58;;;;;;;22.44;57.58;101547.91;5020494;28;20042;-68
2022/05/19 06:45:16;;;;;;;6.20;4.10;;;;;;;22.27;57.36;101560.66;5020652;28;20050;-70
2022/05/19 06:47:46;;;;;;;8.88;3.95;;;;;;;22.13;58.00;101583.09;5026654;28;20558;-70
2022/05/19 06:50:13;;;;;;;7.80;4.00;;;;;;;22.02;58.72;101605.31;5012922;28;20854;-69
2022/05/19 06:52:54;;;;;;;7.93;4.00;;;;;;;21.97;59.60;101591.31;5012451;28;20482;-69
2022/05/19 06:55:23;;;;;;;6.10;3.63;;;;;;;22.02;60.65;101582.97;5014196;28;20046;-68
2022/05/19 06:57:50;;;;;;;4.45;3.38;;;;;;;22.02;60.28;101575.78;5020860;28;20069;-68
2022/05/19 07:00:21;;;;;;;4.60;3.58;;;;;;;21.97;61.18;101582.41;5012812;28;20114;-68
2022/05/19 07:03:01;;;;;;;5.20;3.80;;;;;;;21.94;62.62;101570.03;5019576;28;20049;-68
2022/05/19 07:05:36;;;;;;;5.10;4.03;;;;;;;21.95;63.29;101581.66;5031421;28;20128;-68
2022/05/19 07:08:06;;;;;;;6.57;3.90;;;;;;;21.90;62.87;101562.31;5031101;28;20136;-68
2022/05/19 07:10:34;;;;;;;5.40;3.65;;;;;;;21.82;62.46;101538.69;5019379;28;20508;-68
2022/05/19 07:13:07;;;;;;;6.75;3.75;;;;;;;21.72;62.65;101546.47;5012638;28;20041;-68
2022/05/19 07:15:34;;;;;;;5.27;3.57;;;;;;;21.63;62.94;101529.16;5022307;28;20050;-68
2022/05/19 07:18:01;;;;;;;7.93;3.47;;;;;;;21.59;63.21;101546.44;5016353;28;20039;-68
2022/05/19 07:20:43;;;;;;;6.47;3.60;;;;;;;21.57;63.31;101572.47;5016023;28;20044;-68
2022/05/19 07:23:20;;;;;;;6.18;3.80;;;;;;;21.61;62.93;101597.28;5014589;28;20062;-68
2022/05/19 07:25:48;;;;;;;4.32;3.85;;;;;;;21.69;63.23;101587.78;5018798;28;20054;-68
2022/05/19 07:28:15;;;;;;;8.13;4.85;;;;;;;21.77;62.93;101607.88;5028825;28;20130;-68
2022/05/19 07:30:46;;;;;;;8.88;4.47;;;;;;;21.86;62.49;101605.47;5026399;28;20042;-67
2022/05/19 07:33:15;;;;;;;7.35;4.53;;;;;;;22.01;62.74;101603.59;5023847;28;20055;-68
2022/05/19 07:35:46;;;;;;;5.40;4.10;;;;;;;22.13;62.07;101587.63;5020112;28;20046;-69
2022/05/19 07:38:15;;;;;;;7.38;4.68;;;;;;;22.18;62.17;101586.31;5011609;28;20121;-68
2022/05/19 07:40:44;;;;;;;6.25;4.60;;;;;;;22.21;61.79;101557.53;5025541;28;20061;-68
2022/05/19 07:45:58;;;;;;;6.55;4.75;;;;;;;22.26;60.73;101531.25;5029068;28;20052;-68
2022/05/19 07:48:25;;;;;;;7.85;5.03;;;;;;;22.22;60.81;101567.31;5025256;28;20042;-68
2022/05/19 07:50:53;;;;;;;6.65;4.68;;;;;;;22.25;61.51;101545.63;5015434;28;20052;-67
2022/05/19 07:53:22;;;;;;;5.90;4.78;;;;;;;22.25;60.81;101551.00;5014946;28;20050;-67
2022/05/19 07:55:50;;;;;;;7.05;4.95;;;;;;;22.30;61.32;101548.84;5021067;28;20042;-67
2022/05/19 07:58:17;;;;;;;8.05;4.95;;;;;;;22.42;60.75;101552.56;5023249;28;20174;-68
2022/05/19 08:00:46;;;;;;;8.98;5.20;;;;;;;22.54;60.00;101561.59;5033639;28;20050;-67
2022/05/19 08:03:14;;;;;;;6.50;5.03;;;;;;;22.62;59.66;101557.41;5021913;28;20039;-67
2022/05/19 08:05:42;;;;;;;6.28;4.80;;;;;;;22.69;59.50;101579.31;5019750;28;20052;-68
2022/05/19 08:08:09;;;;;;;7.43;4.72;;;;;;;22.83;59.46;101589.09;5019165;28;20026;-68
2022/05/19 08:10:37;;;;;;;11.10;4.88;;;;;;;22.96;58.34;101589.94;5014456;28;20054;-68
2022/05/19 08:15:53;;;;;;;8.32;5.55;;;;;;;23.18;57.66;101583.03;5020601;28;20045;-68
2022/05/19 08:18:24;;;;;;;8.68;5.20;;;;;;;23.28;57.50;101575.19;5025000;28;20519;-67
2022/05/19 08:20:59;;;;;;;8.23;5.35;;;;;;;23.37;57.81;101574.50;5024157;28;20042;-68
2022/05/19 08:23:31;;;;;;;7.40;4.82;;;;;;;23.48;57.34;101575.56;5024710;28;20092;-67
2022/05/19 08:26:24;;;;;;;6.53;4.70;;;;;;;23.50;56.33;101560.16;5026179;28;20133;-69
2022/05/19 08:28:52;;;;;;;5.65;4.25;;;;;;;23.57;56.38;101558.72;5026545;28;20968;-68
2022/05/19 08:31:24;;;;;;;8.02;4.50;;;;;;;23.69;55.95;101565.03;5018775;28;20048;-69
2022/05/19 08:33:54;;;;;;;7.47;4.15;;;;;;;23.81;54.71;101560.56;5014463;28;20125;-68
2022/05/19 08:36:24;;;;;;;8.65;4.50;;;;;;;23.92;55.16;101544.44;5022606;28;20030;-69
2022/05/19 08:38:52;;;;;;;5.97;4.72;;;;;;;23.93;53.59;101542.63;5015078;28;20504;-68
2022/05/19 08:41:58;;;;;;;7.93;4.60;;;;;;;23.90;53.97;101549.09;5014616;28;20487;-68
2022/05/19 08:44:56;;;;;;;9.82;4.25;;;;;;;24.14;53.94;101549.09;5026541;28;20780;-69
2022/05/19 08:47:30;;;;;;;6.65;4.25;;;;;;;24.48;53.07;101542.91;5026723;28;20053;-69
2022/05/19 08:50:06;;;;;;;6.78;4.50;;;;;;;24.80;51.72;101545.75;5014996;28;20117;-68
2022/05/19 08:52:44;;;;;;;5.45;4.70;;;;;;;25.09;50.46;101542.56;5021300;28;20042;-68
2022/05/19 08:55:16;;;;;;;5.13;4.22;;;;;;;25.35;49.29;101538.69;5019686;28;20050;-68
2022/05/19 08:58:24;;;;;;;6.95;4.53;;;;;;;25.60;48.48;101551.06;5015151;28;20053;-68
2022/05/19 09:01:10;;;;;;;5.70;3.72;;;;;;;26.00;49.45;101565.75;5017382;28;20117;-67
2022/05/19 09:04:34;;;;;;;6.38;3.97;;;;;;;26.34;48.72;101552.94;5033206;28;20053;-67
2022/05/19 09:07:58;;;;;;;6.83;3.50;;;;;;;26.72;46.54;101549.69;4975211;28;20111;-68
2022/05/19 09:10:40;;;;;;;4.22;3.42;;;;;;;27.06;45.85;101550.31;4987889;28;20553;-67
2022/05/19 09:13:16;;;;;;;14.40;3.28;;;;;;;27.35;45.75;101548.66;5025343;28;20104;-68
2022/05/19 09:15:46;;;;;;;4.18;3.00;;;;;;;27.58;45.74;101544.75;5015315;28;20117;-68
2022/05/19 09:18:26;;;;;;;5.95;2.78;;;;;;;27.78;45.07;101541.19;5014246;28;20508;-67
2022/05/19 09:20:56;;;;;;;4.50;2.70;;;;;;;27.96;44.10;101539.47;5030602;28;20045;-68
2022/05/19 09:23:25;;;;;;;6.47;2.50;;;;;;;28.14;43.06;101531.47;5020942;28;20500;-67
2022/05/19 09:26:09;;;;;;;5.70;3.05;;;;;;;28.24;42.72;101527.88;5022173;28;20064;-68
2022/05/19 09:28:46;;;;;;;6.13;2.90;;;;;;;28.42;41.94;101526.13;5014146;28;20092;-68
2022/05/19 09:31:50;;;;;;;4.97;2.53;;;;;;;28.58;41.54;101521.94;5017944;28;20136;-67
2022/05/19 09:34:23;;;;;;;;;;;;;;;28.77;40.62;101523.75;5034916;28;20041;-68
2022/05/19 09:37:36;;;;;;;11.73;2.60;;;;;;;29.13;41.92;101524.69;5034247;28;20013;-68
2022/05/19 09:40:20;;;;;;;5.93;2.70;;;;;;;29.38;40.15;101516.81;5016437;28;20595;-69
2022/05/19 09:43:18;;;;;;;5.67;2.57;;;;;;;29.53;40.08;101513.59;5023946;28;20052;-68
2022/05/19 09:45:58;;;;;;;6.95;2.63;;;;;;;29.79;39.87;101510.06;5017094;28;20288;-69
2022/05/19 09:48:33;;;;;;;6.72;2.53;;;;;;;29.90;38.65;101505.25;5019812;28;20913;-67
2022/05/19 09:51:08;;;;;;;6.03;2.30;;;;;;;29.94;39.20;101508.53;5014903;28;20038;-68
2022/05/19 09:53:52;;;;;;;3.63;2.22;;;;;;;30.03;39.17;101509.44;5028081;28;20564;-68
2022/05/19 09:56:24;;;;;;;4.55;2.70;;;;;;;30.15;38.35;101505.44;5025104;28;20049;-67
2022/05/19 09:59:06;;;;;;;5.65;2.40;;;;;;;30.26;38.28;101504.34;5014896;28;20133;-68
2022/05/19 10:01:47;;;;;;;4.18;2.25;;;;;;;30.39;36.60;101498.44;5021731;28;20046;-68
2022/05/19 10:04:41;;;;;;;10.57;2.80;;;;;;;30.55;37.58;101497.72;5012861;28;20066;-67
2022/05/19 10:07:24;;;;;;;11.70;2.70;;;;;;;30.71;37.64;101491.50;5015737;28;20038;-67
2022/05/19 10:09:57;;;;;;;3.63;2.17;;;;;;;30.84;36.26;101496.47;5016319;28;20049;-68
2022/05/19 10:12:29;;;;;;;15.23;2.45;;;;;;;30.91;36.49;101500.22;5012927;28;20053;-68
2022/05/19 10:15:11;;;;;;;5.82;2.35;;;;;;;30.87;36.16;101498.00;5013561;28;20046;-67
2022/05/19 10:18:24;;;;;;;5.68;2.30;;;;;;;30.85;35.84;101495.47;5022072;28;20050;-67
2022/05/19 10:21:14;;;;;;;8.30;2.50;;;;;;;30.80;35.47;101489.63;5017340;28;20582;-67
2022/05/19 10:24:12;;;;;;;3.20;2.28;;;;;;;30.64;35.15;101476.81;5019371;28;20045;-68
2022/05/19 10:33:20;;;;;;;5.35;2.35;;;;;;;30.50;35.77;101440.19;5017651;28;20066;-69
2022/05/19 10:36:18;;;;;;;5.03;2.47;;;;;;;30.75;35.63;101429.44;5011250;28;20991;-69
2022/05/19 10:38:56;;;;;;;6.18;2.38;;;;;;;31.01;36.63;101433.91;5031474;28;20073;-68
2022/05/19 10:41:51;;;;;;;5.30;2.50;;;;;;;31.43;34.18;101431.09;5021354;28;20034;-69
2022/05/19 10:45:16;;;;;;;6.03;2.78;;;;;;;31.66;34.36;101422.22;5028561;28;20042;-69
2022/05/19 10:48:08;;;;;;;7.03;2.58;;;;;;;31.70;34.10;101414.56;5014129;28;20060;-69
2022/05/19 10:50:44;;;;;;;5.10;2.50;;;;;;;32.00;32.72;101414.88;5021842;28;20039;-69
2022/05/19 10:54:06;;;;;;;4.47;2.50;;;;;;;32.16;33.03;101412.09;5024135;28;20045;-68
2022/05/19 10:57:40;;;;;;;4.47;2.30;;;;;;;32.16;33.13;101417.53;4987616;28;20669;-69
2022/05/19 11:00:34;;;;;;;8.50;2.33;;;;;;;32.19;32.62;101425.38;5018053;28;20072;-68
2022/05/19 11:03:33;;;;;;;11.25;2.53;;;;;;;32.30;32.39;101432.34;5013378;28;20042;-69
2022/05/19 11:06:43;;;;;;;7.32;2.90;;;;;;;32.22;32.73;101441.38;5019659;28;20104;-69
2022/05/19 11:09:30;;;;;;;6.00;2.30;;;;;;;32.08;32.60;101450.28;5022007;28;20614;-70
2022/05/19 11:12:35;;;;;;;5.75;2.78;;;;;;;32.02;32.16;101442.78;5020111;28;20048;-70
2022/05/19 11:15:25;;;;;;;4.78;2.28;;;;;;;32.04;33.38;101427.13;5018206;28;20042;-68
2022/05/19 11:18:17;;;;;;;3.78;2.20;;;;;;;31.83;33.21;101427.69;5025145;28;20126;-68
2022/05/19 11:21:16;;;;;;;10.45;2.72;;;;;;;31.54;34.13;101432.63;5022419;28;20512;-69
2022/05/19 11:24:22;;;;;;;8.48;2.28;;;;;;;31.44;33.99;101421.03;5045852;28;20046;-68
2022/05/19 11:27:19;;;;;;;8.63;2.13;;;;;;;31.41;33.01;101402.31;5013735;28;20054;-69
2022/05/19 11:29:57;;;;;;;3.88;2.40;;;;;;;31.39;34.13;101398.94;5016048;28;20543;-69
2022/05/19 11:32:35;;;;;;;5.05;2.70;;;;;;;31.22;34.41;101409.81;5017900;28;20054;-69
2022/05/19 11:35:25;;;;;;;5.55;2.20;;;;;;;31.07;34.43;101406.88;5012516;28;20792;-70
2022/05/19 11:38:15;;;;;;;7.45;2.72;;;;;;;30.97;34.85;101400.72;5022005;28;20169;-69
2022/05/19 11:40:57;;;;;;;5.82;2.58;;;;;;;30.82;35.72;101405.97;5014587;28;20129;-69
2022/05/19 11:43:40;;;;;;;8.13;2.55;;;;;;;30.54;35.26;101405.38;5011955;28;20046;-69
2022/05/19 11:46:22;;;;;;;12.02;3.10;;;;;;;30.16;36.39;101398.41;5013823;28;20046;-69
2022/05/19 11:55:13;;;;;;;4.78;2.60;;;;;;;29.13;37.99;101386.28;5012161;28;20078;-69
2022/05/19 11:57:47;;;;;;;4.68;2.38;;;;;;;28.83;38.71;101371.22;5016178;28;20149;-69
2022/05/19 12:00:52;;;;;;;6.32;2.70;;;;;;;28.51;39.69;101353.56;5012640;28;20118;-69
2022/05/19 12:03:29;;;;;;;3.90;2.35;;;;;;;28.24;40.43;101349.88;5019200;28;20038;-68
2022/05/19 12:06:03;;;;;;;4.38;2.40;;;;;;;28.01;40.55;101354.78;5017769;28;20129;-68
2022/05/19 12:09:00;;;;;;;4.03;2.55;;;;;;;27.81;40.94;101384.66;5023100;28;20128;-68
2022/05/19 12:11:52;;;;;;;11.13;3.10;;;;;;;27.67;40.97;101520.50;5016783;28;20078;-69
2022/05/19 12:14:27;;;;;;;1290.20;106.47;;;;;;;27.53;42.15;101605.72;5023141;28;20548;-68
2022/05/19 12:17:15;;;;;;;72.75;5.55;;;;;;;24.03;56.64;101722.22;5030612;28;20042;-68
2022/05/19 12:19:56;;;;;;;18.30;3.00;;;;;;;20.85;68.01;101717.25;5015829;28;20050;-67
2022/05/19 12:22:40;;;;;;;18.60;2.85;;;;;;;18.75;76.49;101741.16;5017364;28;20074;-67
2022/05/19 12:25:16;;;;;;;;;;;;;;;17.65;78.16;101731.22;5010434;28;20044;-68
2022/05/19 12:27:56;;;;;;;6.80;1.52;;;;;;;16.85;80.63;101724.06;5012880;28;19971;-68
2022/05/19 12:33:35;;;;;;;6.75;2.05;;;;;;;16.13;85.52;101793.47;5016854;28;20196;-69
2022/05/19 12:36:12;;;;;;;6.38;1.60;;;;;;;15.94;86.35;101771.16;5018377;28;20038;-68
2022/05/19 12:38:45;;;;;;;6.63;1.33;;;;;;;15.75;87.02;101736.41;5021084;28;20030;-67
2022/05/19 12:41:31;;;;;;;6.80;1.52;;;;;;;15.59;87.22;101713.06;5017419;28;20154;-67
2022/05/19 12:44:40;;;;;;;9.00;2.00;;;;;;;15.45;88.66;101676.38;5015406;28;20038;-69
2022/05/19 12:47:10;;;;;;;5.63;2.40;;;;;;;15.44;90.14;101639.25;5018141;28;20508;-69
2022/05/19 12:49:58;;;;;;;4.43;1.92;;;;;;;15.43;89.88;101595.84;5019739;28;20073;-69
2022/05/19 12:53:04;;;;;;;3.95;2.50;;;;;;;15.45;89.67;101585.19;5019491;28;20046;-69